sensor_id;sensor_type;location;lat;lon;timestamp;pressure;altitude;pressure_sealevel;temperature;humidity
38466;BME280;24244;51.950;5.902;2023-05-20T00:02:09;102372.47;;;14.12;55.60
38466;BME280;24244;51.950;5.902;2023-05-20T00:04:37;102366.13;;;14.13;55.45
38466;BME280;24244;51.950;5.902;2023-05-20T00:07:06;102364.47;;;14.12;55.65
38466;BME280;24244;51.950;5.902;2023-05-20T00:09:33;102367.28;;;14.10;55.66
38466;BME280;24244;51.950;5.902;2023-05-20T00:12:00;102365.63;;;14.09;55.69
38466;BME280;24244;51.950;5.902;2023-05-20T00:14:26;102370.13;;;14.09;55.65
38466;BME280;24244;51.950;5.902;2023-05-20T00:16:53;102372.13;;;14.07;55.76
38466;BME280;24244;51.950;5.902;2023-05-20T00:19:20;102370.97;;;14.01;56.43
38466;BME280;24244;51.950;5.902;2023-05-20T00:21:49;102366.63;;;14.00;56.24
38466;BME280;24244;51.950;5.902;2023-05-20T00:24:15;102369.50;;;13.99;56.27
38466;BME280;24244;51.950;5.902;2023-05-20T00:26:43;102366.00;;;13.98;56.22
38466;BME280;24244;51.950;5.902;2023-05-20T00:29:10;102374.34;;;13.95;56.75
38466;BME280;24244;51.950;5.902;2023-05-20T00:31:36;102368.50;;;13.92;56.76
38466;BME280;24244;51.950;5.902;2023-05-20T00:34:03;102365.63;;;13.93;56.75
38466;BME280;24244;51.950;5.902;2023-05-20T00:36:30;102366.47;;;13.94;56.50
38466;BME280;24244;51.950;5.902;2023-05-20T00:38:58;102368.16;;;13.95;56.74
38466;BME280;24244;51.950;5.902;2023-05-20T00:41:25;102364.63;;;13.94;56.84
38466;BME280;24244;51.950;5.902;2023-05-20T00:43:52;102369.00;;;13.95;56.85
38466;BME280;24244;51.950;5.902;2023-05-20T00:46:20;102362.81;;;13.95;56.91
38466;BME280;24244;51.950;5.902;2023-05-20T00:48:47;102362.97;;;13.93;57.32
38466;BME280;24244;51.950;5.902;2023-05-20T00:51:13;102363.81;;;13.94;56.86
38466;BME280;24244;51.950;5.902;2023-05-20T00:53:40;102357.63;;;13.93;57.04
38466;BME280;24244;51.950;5.902;2023-05-20T00:56:09;102355.97;;;13.92;57.02
38466;BME280;24244;51.950;5.902;2023-05-20T00:58:36;102354.09;;;13.93;57.09
38466;BME280;24244;51.950;5.902;2023-05-20T01:01:03;102354.63;;;13.96;57.32
38466;BME280;24244;51.950;5.902;2023-05-20T01:03:31;102356.47;;;13.96;57.28
38466;BME280;24244;51.950;5.902;2023-05-20T01:05:58;102347.97;;;13.92;57.58
38466;BME280;24244;51.950;5.902;2023-05-20T01:08:25;102348.97;;;13.91;57.24
38466;BME280;24244;51.950;5.902;2023-05-20T01:10:59;102349.94;;;13.90;57.55
38466;BME280;24244;51.950;5.902;2023-05-20T01:13:33;102339.25;;;13.90;57.26
38466;BME280;24244;51.950;5.902;2023-05-20T01:16:03;102348.28;;;13.89;57.98
38466;BME280;24244;51.950;5.902;2023-05-20T01:18:31;102344.78;;;13.89;57.57
38466;BME280;24244;51.950;5.902;2023-05-20T01:20:58;102348.59;;;13.86;57.64
38466;BME280;24244;51.950;5.902;2023-05-20T01:23:36;102349.63;;;13.85;57.86
38466;BME280;24244;51.950;5.902;2023-05-20T01:26:03;102352.31;;;13.85;57.93
38466;BME280;24244;51.950;5.902;2023-05-20T01:28:31;102345.44;;;13.83;58.55
38466;BME280;24244;51.950;5.902;2023-05-20T01:31:00;102348.44;;;13.80;58.25
38466;BME280;24244;51.950;5.902;2023-05-20T01:33:28;102346.78;;;13.79;58.30
38466;BME280;24244;51.950;5.902;2023-05-20T01:35:56;102344.28;;;13.77;58.39
38466;BME280;24244;51.950;5.902;2023-05-20T01:38:25;102345.13;;;13.78;58.45
38466;BME280;24244;51.950;5.902;2023-05-20T01:40:55;102343.47;;;13.77;58.65
38466;BME280;24244;51.950;5.902;2023-05-20T01:43:23;102339.09;;;13.76;58.56
38466;BME280;24244;51.950;5.902;2023-05-20T01:45:51;102334.59;;;13.76;58.55
38466;BME280;24244;51.950;5.902;2023-05-20T01:48:18;102334.44;;;13.78;58.77
38466;BME280;24244;51.950;5.902;2023-05-20T01:50:44;102325.75;;;13.76;58.57
38466;BME280;24244;51.950;5.902;2023-05-20T01:53:11;102316.72;;;13.77;58.93
38466;BME280;24244;51.950;5.902;2023-05-20T01:55:38;102320.88;;;13.79;58.82
38466;BME280;24244;51.950;5.902;2023-05-20T01:58:06;102323.75;;;13.78;58.96
38466;BME280;24244;51.950;5.902;2023-05-20T02:00:34;102324.22;;;13.73;59.27
38466;BME280;24244;51.950;5.902;2023-05-20T02:03:01;102323.75;;;13.69;59.37
38466;BME280;24244;51.950;5.902;2023-05-20T02:05:30;102318.06;;;13.64;59.96
38466;BME280;24244;51.950;5.902;2023-05-20T02:07:57;102318.25;;;13.63;59.66
38466;BME280;24244;51.950;5.902;2023-05-20T02:10:24;102323.06;;;13.67;59.74
38466;BME280;24244;51.950;5.902;2023-05-20T02:12:50;102327.59;;;13.67;59.40
38466;BME280;24244;51.950;5.902;2023-05-20T02:15:18;102323.06;;;13.67;59.74
38466;BME280;24244;51.950;5.902;2023-05-20T02:17:45;102322.09;;;13.68;59.59
38466;BME280;24244;51.950;5.902;2023-05-20T02:20:12;102317.72;;;13.67;59.53
38466;BME280;24244;51.950;5.902;2023-05-20T02:22:40;102317.91;;;13.66;59.40
38466;BME280;24244;51.950;5.902;2023-05-20T02:25:08;102318.06;;;13.64;59.92
38466;BME280;24244;51.950;5.902;2023-05-20T02:27:35;102319.91;;;13.64;60.18
38466;BME280;24244;51.950;5.902;2023-05-20T02:30:03;102314.06;;;13.60;60.25
38466;BME280;24244;51.950;5.902;2023-05-20T02:32:31;102321.41;;;13.58;59.83
38466;BME280;24244;51.950;5.902;2023-05-20T02:34:59;102323.06;;;13.59;60.44
38466;BME280;24244;51.950;5.902;2023-05-20T02:37:26;102311.41;;;13.60;60.20
38466;BME280;24244;51.950;5.902;2023-05-20T02:39:54;102313.91;;;13.62;59.95
38466;BME280;24244;51.950;5.902;2023-05-20T02:42:22;102306.03;;;13.60;59.95
38466;BME280;24244;51.950;5.902;2023-05-20T02:44:48;102304.72;;;13.56;60.43
38466;BME280;24244;51.950;5.902;2023-05-20T02:47:17;102301.22;;;13.56;60.28
38466;BME280;24244;51.950;5.902;2023-05-20T02:49:45;102296.88;;;13.55;60.53
38466;BME280;24244;51.950;5.902;2023-05-20T02:52:12;102296.19;;;13.53;60.46
38466;BME280;24244;51.950;5.902;2023-05-20T02:54:38;102294.19;;;13.55;60.43
38466;BME280;24244;51.950;5.902;2023-05-20T02:57:06;102298.88;;;13.53;60.36
38466;BME280;24244;51.950;5.902;2023-05-20T02:59:33;102295.38;;;13.52;60.76
38466;BME280;24244;51.950;5.902;2023-05-20T03:01:59;102298.03;;;13.52;60.66
38466;BME280;24244;51.950;5.902;2023-05-20T03:04:27;102295.53;;;13.51;60.87
38466;BME280;24244;51.950;5.902;2023-05-20T03:06:55;102303.53;;;13.51;60.56
38466;BME280;24244;51.950;5.902;2023-05-20T03:09:23;102300.22;;;13.49;60.60
38466;BME280;24244;51.950;5.902;2023-05-20T03:11:50;102296.88;;;13.47;60.72
38466;BME280;24244;51.950;5.902;2023-05-20T03:14:17;102306.03;;;13.44;60.69
38466;BME280;24244;51.950;5.902;2023-05-20T03:16:44;102297.53;;;13.41;61.13
38466;BME280;24244;51.950;5.902;2023-05-20T03:19:11;102305.03;;;13.37;60.92
38466;BME280;24244;51.950;5.902;2023-05-20T03:21:37;102300.88;;;13.35;61.38
38466;BME280;24244;51.950;5.902;2023-05-20T03:24:06;102307.53;;;13.30;61.43
38466;BME280;24244;51.950;5.902;2023-05-20T03:26:32;102295.69;;;13.25;61.67
38466;BME280;24244;51.950;5.902;2023-05-20T03:29:04;102310.72;;;13.26;61.81
38466;BME280;24244;51.950;5.902;2023-05-20T03:31:31;102307.06;;;13.27;61.49
38466;BME280;24244;51.950;5.902;2023-05-20T03:33:57;102314.22;;;13.26;61.58
38466;BME280;24244;51.950;5.902;2023-05-20T03:36:24;102313.72;;;13.23;61.52
38466;BME280;24244;51.950;5.902;2023-05-20T03:38:51;102311.56;;;13.18;61.54
38466;BME280;24244;51.950;5.902;2023-05-20T03:41:19;102303.84;;;13.15;61.64
38466;BME280;24244;51.950;5.902;2023-05-20T03:43:46;102309.19;;;13.15;61.53
38466;BME280;24244;51.950;5.902;2023-05-20T03:46:13;102313.69;;;13.15;61.86
38466;BME280;24244;51.950;5.902;2023-05-20T03:48:39;102316.84;;;13.10;62.08
38466;BME280;24244;51.950;5.902;2023-05-20T03:51:06;102313.69;;;13.07;62.20
38466;BME280;24244;51.950;5.902;2023-05-20T03:53:33;102314.69;;;13.06;62.26
38466;BME280;24244;51.950;5.902;2023-05-20T03:56:00;102315.69;;;13.05;62.30
38466;BME280;24244;51.950;5.902;2023-05-20T03:58:28;102320.03;;;13.06;62.40
38466;BME280;24244;51.950;5.902;2023-05-20T04:00:56;102321.00;;;13.05;62.44
38466;BME280;24244;51.950;5.902;2023-05-20T04:03:24;102306.16;;;13.02;62.33
38466;BME280;24244;51.950;5.902;2023-05-20T04:05:51;102311.00;;;12.99;62.59
38466;BME280;24244;51.950;5.902;2023-05-20T04:08:18;102312.16;;;12.96;62.65
38466;BME280;24244;51.950;5.902;2023-05-20T04:10:45;102303.47;;;12.94;62.90
38466;BME280;24244;51.950;5.902;2023-05-20T04:13:12;102309.63;;;12.94;62.74
38466;BME280;24244;51.950;5.902;2023-05-20T04:15:40;102308.97;;;12.92;62.88
38466;BME280;24244;51.950;5.902;2023-05-20T04:18:07;102310.81;;;12.92;63.06
38466;BME280;24244;51.950;5.902;2023-05-20T04:20:34;102315.13;;;12.93;62.82
38466;BME280;24244;51.950;5.902;2023-05-20T04:23:01;102317.63;;;12.94;62.75
38466;BME280;24244;51.950;5.902;2023-05-20T04:25:28;102323.66;;;12.97;62.68
38466;BME280;24244;51.950;5.902;2023-05-20T04:27:54;102314.66;;;12.98;62.96
38466;BME280;24244;51.950;5.902;2023-05-20T04:30:23;102308.31;;;12.99;62.44
38466;BME280;24244;51.950;5.902;2023-05-20T04:32:51;102313.66;;;12.99;62.78
38466;BME280;24244;51.950;5.902;2023-05-20T04:35:19;102317.47;;;12.96;62.77
38466;BME280;24244;51.950;5.902;2023-05-20T04:37:46;102320.00;;;12.98;62.82
38466;BME280;24244;51.950;5.902;2023-05-20T04:40:18;102320.00;;;12.98;63.06
38466;BME280;24244;51.950;5.902;2023-05-20T04:42:46;102315.50;;;12.98;62.84
38466;BME280;24244;51.950;5.902;2023-05-20T04:45:13;102324.19;;;13.00;63.13
38466;BME280;24244;51.950;5.902;2023-05-20T04:47:40;102327.50;;;13.02;63.22
38466;BME280;24244;51.950;5.902;2023-05-20T04:50:09;102320.00;;;12.98;63.72
38466;BME280;24244;51.950;5.902;2023-05-20T04:52:37;102311.84;;;12.99;63.40
38466;BME280;24244;51.950;5.902;2023-05-20T04:55:06;102320.50;;;13.01;63.14
38466;BME280;24244;51.950;5.902;2023-05-20T04:57:35;102324.69;;;13.04;63.46
38466;BME280;24244;51.950;5.902;2023-05-20T05:00:05;102322.53;;;13.07;63.31
38466;BME280;24244;51.950;5.902;2023-05-20T05:02:33;102323.03;;;13.11;63.23
38466;BME280;24244;51.950;5.902;2023-05-20T05:05:00;102313.69;;;13.15;63.12
38466;BME280;24244;51.950;5.902;2023-05-20T05:07:28;102309.03;;;13.17;63.18
38466;BME280;24244;51.950;5.902;2023-05-20T05:09:55;102315.22;;;13.17;63.53
38466;BME280;24244;51.950;5.902;2023-05-20T05:12:22;102313.22;;;13.19;63.26
38466;BME280;24244;51.950;5.902;2023-05-20T05:14:49;102313.72;;;13.23;63.27
38466;BME280;24244;51.950;5.902;2023-05-20T05:17:16;102314.38;;;13.25;63.50
38466;BME280;24244;51.950;5.902;2023-05-20T05:19:43;102307.91;;;13.27;63.19
38466;BME280;24244;51.950;5.902;2023-05-20T05:22:09;102316.41;;;13.31;63.33
38466;BME280;24244;51.950;5.902;2023-05-20T05:24:37;102308.06;;;13.34;63.21
38466;BME280;24244;51.950;5.902;2023-05-20T05:27:04;102304.41;;;13.35;62.99
38466;BME280;24244;51.950;5.902;2023-05-20T05:29:31;102306.72;;;13.38;63.08
38466;BME280;24244;51.950;5.902;2023-05-20T05:31:58;102298.38;;;13.41;63.32
38466;BME280;24244;51.950;5.902;2023-05-20T05:34:25;102310.41;;;13.45;63.07
38466;BME280;24244;51.950;5.902;2023-05-20T05:36:52;102304.22;;;13.45;63.00
38466;BME280;24244;51.950;5.902;2023-05-20T05:39:18;102312.22;;;13.45;63.27
38466;BME280;24244;51.950;5.902;2023-05-20T05:41:46;102304.88;;;13.47;63.20
38466;BME280;24244;51.950;5.902;2023-05-20T05:44:13;102308.03;;;13.50;63.35
38466;BME280;24244;51.950;5.902;2023-05-20T05:46:40;102313.91;;;13.54;63.27
38466;BME280;24244;51.950;5.902;2023-05-20T05:49:07;102310.22;;;13.55;63.14
38466;BME280;24244;51.950;5.902;2023-05-20T05:51:34;102304.72;;;13.56;63.08
38466;BME280;24244;51.950;5.902;2023-05-20T05:54:04;102303.69;;;13.57;63.29
38466;BME280;24244;51.950;5.902;2023-05-20T05:56:32;102303.38;;;13.60;63.26
38466;BME280;24244;51.950;5.902;2023-05-20T05:59:00;102304.88;;;13.63;63.10
38466;BME280;24244;51.950;5.902;2023-05-20T06:01:27;102303.38;;;13.68;63.22
38466;BME280;24244;51.950;5.902;2023-05-20T06:03:54;102305.69;;;13.71;63.17
38466;BME280;24244;51.950;5.902;2023-05-20T06:06:21;102299.03;;;13.76;62.98
38466;BME280;24244;51.950;5.902;2023-05-20T06:08:48;102301.34;;;13.79;62.93
38466;BME280;24244;51.950;5.902;2023-05-20T06:11:15;102301.00;;;13.82;63.20
38466;BME280;24244;51.950;5.902;2023-05-20T06:13:42;102294.31;;;13.86;63.27
38466;BME280;24244;51.950;5.902;2023-05-20T06:16:10;102298.31;;;13.90;62.92
38466;BME280;24244;51.950;5.902;2023-05-20T06:18:37;102298.16;;;13.91;62.98
38466;BME280;24244;51.950;5.902;2023-05-20T06:21:04;102294.13;;;13.95;62.87
38466;BME280;24244;51.950;5.902;2023-05-20T06:23:31;102296.28;;;14.00;62.98
38466;BME280;24244;51.950;5.902;2023-05-20T06:25:58;102287.94;;;14.03;63.18
38466;BME280;24244;51.950;5.902;2023-05-20T06:28:25;102287.59;;;14.06;63.00
38466;BME280;24244;51.950;5.902;2023-05-20T06:30:54;102290.59;;;14.11;62.58
38466;BME280;24244;51.950;5.902;2023-05-20T06:33:23;102282.19;;;14.14;62.68
38466;BME280;24244;51.950;5.902;2023-05-20T06:35:51;102280.69;;;14.20;62.84
38466;BME280;24244;51.950;5.902;2023-05-20T06:38:18;102275.50;;;14.26;62.89
38466;BME280;24244;51.950;5.902;2023-05-20T06:40:46;102272.78;;;14.34;62.56
38466;BME280;24244;51.950;5.902;2023-05-20T06:43:13;102270.59;;;14.46;62.65
38466;BME280;24244;51.950;5.902;2023-05-20T06:45:40;102277.38;;;14.57;62.26
38466;BME280;24244;51.950;5.902;2023-05-20T06:48:10;102274.66;;;14.65;61.74
38466;BME280;24244;51.950;5.902;2023-05-20T06:50:38;102272.94;;;14.72;61.96
38466;BME280;24244;51.950;5.902;2023-05-20T06:53:05;102269.56;;;14.78;61.55
38466;BME280;24244;51.950;5.902;2023-05-20T06:55:32;102263.53;;;14.84;61.84
38466;BME280;24244;51.950;5.902;2023-05-20T06:57:59;102268.31;;;14.88;61.63
38466;BME280;24244;51.950;5.902;2023-05-20T07:00:25;102257.28;;;14.92;61.48
38466;BME280;24244;51.950;5.902;2023-05-20T07:02:52;102251.38;;;14.96;61.61
38466;BME280;24244;51.950;5.902;2023-05-20T07:05:19;102256.00;;;15.02;61.82
38466;BME280;24244;51.950;5.902;2023-05-20T07:07:47;102252.16;;;15.05;61.68
38466;BME280;24244;51.950;5.902;2023-05-20T07:10:14;102254.94;;;15.11;61.39
38466;BME280;24244;51.950;5.902;2023-05-20T07:12:41;102249.88;;;15.16;61.31
38466;BME280;24244;51.950;5.902;2023-05-20T07:15:08;102252.00;;;15.21;61.43
38466;BME280;24244;51.950;5.902;2023-05-20T07:17:35;102250.66;;;15.25;61.46
38466;BME280;24244;51.950;5.902;2023-05-20T07:20:03;102258.13;;;15.29;61.30
38466;BME280;24244;51.950;5.902;2023-05-20T07:22:30;102252.44;;;15.33;61.12
38466;BME280;24244;51.950;5.902;2023-05-20T07:24:58;102252.03;;;15.36;61.06
38466;BME280;24244;51.950;5.902;2023-05-20T07:27:26;102249.69;;;15.41;60.93
38466;BME280;24244;51.950;5.902;2023-05-20T07:29:53;102245.59;;;15.45;60.87
38466;BME280;24244;51.950;5.902;2023-05-20T07:32:21;102241.53;;;15.49;61.16
38466;BME280;24244;51.950;5.902;2023-05-20T07:34:47;102233.00;;;15.53;61.09
38466;BME280;24244;51.950;5.902;2023-05-20T07:37:14;102239.66;;;15.57;61.06
38466;BME280;24244;51.950;5.902;2023-05-20T07:39:42;102252.53;;;15.62;60.99
38466;BME280;24244;51.950;5.902;2023-05-20T07:42:10;102225.34;;;15.65;61.02
38466;BME280;24244;51.950;5.902;2023-05-20T07:44:37;102230.34;;;15.68;60.93
38466;BME280;24244;51.950;5.902;2023-05-20T07:47:04;102230.78;;;15.72;60.64
38466;BME280;24244;51.950;5.902;2023-05-20T07:49:32;102226.75;;;15.76;60.47
38466;BME280;24244;51.950;5.902;2023-05-20T07:52:00;102232.56;;;15.79;60.48
38466;BME280;24244;51.950;5.902;2023-05-20T07:54:28;102223.13;;;15.83;60.16
38466;BME280;24244;51.950;5.902;2023-05-20T07:56:55;102228.59;;;15.90;60.23
38466;BME280;24244;51.950;5.902;2023-05-20T07:59:23;102223.69;;;15.93;60.27
38466;BME280;24244;51.950;5.902;2023-05-20T08:01:50;102217.78;;;15.98;59.76
38466;BME280;24244;51.950;5.902;2023-05-20T08:04:17;102213.88;;;16.00;59.65
38466;BME280;24244;51.950;5.902;2023-05-20T08:06:44;102213.50;;;16.03;59.56
38466;BME280;24244;51.950;5.902;2023-05-20T08:09:12;102225.50;;;16.08;59.81
38466;BME280;24244;51.950;5.902;2023-05-20T08:11:38;102217.75;;;16.13;59.29
38466;BME280;24244;51.950;5.902;2023-05-20T08:14:05;102228.75;;;16.18;59.32
38466;BME280;24244;51.950;5.902;2023-05-20T08:16:35;102218.28;;;16.23;59.18
38466;BME280;24244;51.950;5.902;2023-05-20T08:19:02;102216.91;;;16.27;59.16
38466;BME280;24244;51.950;5.902;2023-05-20T08:21:29;102216.16;;;16.33;58.89
38466;BME280;24244;51.950;5.902;2023-05-20T08:23:58;102213.53;;;16.39;58.73
38466;BME280;24244;51.950;5.902;2023-05-20T08:26:25;102221.47;;;16.48;58.39
38466;BME280;24244;51.950;5.902;2023-05-20T08:28:52;102223.22;;;16.55;58.25
38466;BME280;24244;51.950;5.902;2023-05-20T08:31:20;102215.72;;;16.65;58.13
38466;BME280;24244;51.950;5.902;2023-05-20T08:33:48;102210.66;;;16.77;57.61
38466;BME280;24244;51.950;5.902;2023-05-20T08:36:15;102215.72;;;16.87;57.23
38466;BME280;24244;51.950;5.902;2023-05-20T08:38:42;102207.34;;;16.96;57.07
38466;BME280;24244;51.950;5.902;2023-05-20T08:41:09;102207.22;;;17.04;57.13
38466;BME280;24244;51.950;5.902;2023-05-20T08:43:36;102196.91;;;17.08;56.80
38466;BME280;24244;51.950;5.902;2023-05-20T08:46:03;102197.78;;;17.15;56.93
38466;BME280;24244;51.950;5.902;2023-05-20T08:48:32;102201.53;;;17.20;56.99
38466;BME280;24244;51.950;5.902;2023-05-20T08:51:02;102202.41;;;17.28;56.69
38466;BME280;24244;51.950;5.902;2023-05-20T08:53:29;102189.88;;;17.35;56.44
38466;BME280;24244;51.950;5.902;2023-05-20T08:55:58;102191.56;;;17.42;56.36
38466;BME280;24244;51.950;5.902;2023-05-20T08:58:28;102180.03;;;17.48;56.18
38466;BME280;24244;51.950;5.902;2023-05-20T09:00:55;102186.28;;;17.55;55.89
38466;BME280;24244;51.950;5.902;2023-05-20T09:03:22;102181.16;;;17.60;55.87
38466;BME280;24244;51.950;5.902;2023-05-20T09:05:50;102182.06;;;17.68;55.56
38466;BME280;24244;51.950;5.902;2023-05-20T09:08:19;102181.28;;;17.74;55.40
38466;BME280;24244;51.950;5.902;2023-05-20T09:10:51;102182.50;;;17.78;55.32
38466;BME280;24244;51.950;5.902;2023-05-20T09:13:18;102178.41;;;17.82;55.04
38466;BME280;24244;51.950;5.902;2023-05-20T09:15:46;102178.19;;;17.83;55.06
38466;BME280;24244;51.950;5.902;2023-05-20T09:18:13;102175.13;;;17.86;54.78
38466;BME280;24244;51.950;5.902;2023-05-20T09:20:45;102166.44;;;17.91;54.79
38466;BME280;24244;51.950;5.902;2023-05-20T09:23:12;102174.31;;;17.92;54.50
38466;BME280;24244;51.950;5.902;2023-05-20T09:25:41;102166.88;;;17.94;54.25
38466;BME280;24244;51.950;5.902;2023-05-20T09:28:10;102164.59;;;17.98;54.51
38466;BME280;24244;51.950;5.902;2023-05-20T09:30:38;102166.28;;;18.06;54.13
38466;BME280;24244;51.950;5.902;2023-05-20T09:33:05;102164.88;;;18.10;54.02
38466;BME280;24244;51.950;5.902;2023-05-20T09:35:35;102153.69;;;18.13;53.75
38466;BME280;24244;51.950;5.902;2023-05-20T09:38:05;102158.50;;;18.17;53.43
38466;BME280;24244;51.950;5.902;2023-05-20T09:40:35;102149.16;;;18.20;53.50
38466;BME280;24244;51.950;5.902;2023-05-20T09:43:06;102158.31;;;18.25;53.53
38466;BME280;24244;51.950;5.902;2023-05-20T09:45:34;102157.88;;;18.28;53.49
38466;BME280;24244;51.950;5.902;2023-05-20T09:48:02;102152.13;;;18.31;53.61
38466;BME280;24244;51.950;5.902;2023-05-20T09:50:30;102138.03;;;18.36;53.12
38466;BME280;24244;51.950;5.902;2023-05-20T09:53:01;102148.19;;;18.40;53.16
38466;BME280;24244;51.950;5.902;2023-05-20T09:55:29;102147.16;;;18.48;52.74
38466;BME280;24244;51.950;5.902;2023-05-20T09:57:58;102150.09;;;18.53;52.43
38466;BME280;24244;51.950;5.902;2023-05-20T10:00:29;102149.50;;;18.58;52.46
38466;BME280;24244;51.950;5.902;2023-05-20T10:02:56;102148.03;;;18.62;52.15
38466;BME280;24244;51.950;5.902;2023-05-20T10:05:26;102139.56;;;18.65;51.95
38466;BME280;24244;51.950;5.902;2023-05-20T10:08:20;102145.16;;;18.63;51.60
38466;BME280;24244;51.950;5.902;2023-05-20T10:10:57;102141.03;;;18.61;51.72
38466;BME280;24244;51.950;5.902;2023-05-20T10:16:45;102135.84;;;18.66;51.88
38466;BME280;24244;51.950;5.902;2023-05-20T10:19:22;102134.38;;;18.70;51.57
38466;BME280;24244;51.950;5.902;2023-05-20T10:21:58;102128.78;;;18.78;51.72
38466;BME280;24244;51.950;5.902;2023-05-20T10:24:31;102115.13;;;18.86;51.44
38466;BME280;24244;51.950;5.902;2023-05-20T10:27:00;102121.31;;;18.93;51.47
38466;BME280;24244;51.950;5.902;2023-05-20T10:29:41;102117.41;;;19.02;51.52
38466;BME280;24244;51.950;5.902;2023-05-20T10:32:10;102108.47;;;19.08;51.52
38466;BME280;24244;51.950;5.902;2023-05-20T10:34:45;102109.50;;;19.14;51.57
38466;BME280;24244;51.950;5.902;2023-05-20T10:37:23;102105.56;;;19.16;51.22
38466;BME280;24244;51.950;5.902;2023-05-20T10:39:51;102113.66;;;19.16;51.10
38466;BME280;24244;51.950;5.902;2023-05-20T10:42:27;102103.47;;;19.18;50.97
38466;BME280;24244;51.950;5.902;2023-05-20T10:44:55;102099.31;;;19.23;51.05
38466;BME280;24244;51.950;5.902;2023-05-20T10:47:23;102097.44;;;19.30;50.67
38466;BME280;24244;51.950;5.902;2023-05-20T10:49:52;102101.16;;;19.35;50.49
38466;BME280;24244;51.950;5.902;2023-05-20T10:52:19;102098.44;;;19.42;50.66
38466;BME280;24244;51.950;5.902;2023-05-20T10:54:54;102096.16;;;19.45;50.53
38466;BME280;24244;51.950;5.902;2023-05-20T10:57:22;102103.63;;;19.50;50.45
38466;BME280;24244;51.950;5.902;2023-05-20T10:59:51;102106.94;;;19.52;50.34
38466;BME280;24244;51.950;5.902;2023-05-20T11:02:19;102096.56;;;19.55;50.34
38466;BME280;24244;51.950;5.902;2023-05-20T11:04:55;102091.56;;;19.59;50.14
38466;BME280;24244;51.950;5.902;2023-05-20T11:07:25;102105.25;;;19.64;50.31
38466;BME280;24244;51.950;5.902;2023-05-20T11:09:54;102104.59;;;19.69;49.95
38466;BME280;24244;51.950;5.902;2023-05-20T11:12:22;102101.28;;;19.73;50.16
38466;BME280;24244;51.950;5.902;2023-05-20T11:14:49;102089.00;;;19.77;50.30
38466;BME280;24244;51.950;5.902;2023-05-20T11:17:17;102097.25;;;19.82;49.65
38466;BME280;24244;51.950;5.902;2023-05-20T11:19:45;102084.41;;;19.84;49.63
38466;BME280;24244;51.950;5.902;2023-05-20T11:22:14;102075.25;;;19.85;49.36
38466;BME280;24244;51.950;5.902;2023-05-20T11:24:41;102081.69;;;19.84;49.46
38466;BME280;24244;51.950;5.902;2023-05-20T11:27:09;102082.97;;;19.82;49.58
38466;BME280;24244;51.950;5.902;2023-05-20T11:29:36;102069.88;;;19.85;49.84
38466;BME280;24244;51.950;5.902;2023-05-20T11:32:04;102067.56;;;19.89;49.73
38466;BME280;24244;51.950;5.902;2023-05-20T11:34:34;102075.44;;;19.90;49.57
38466;BME280;24244;51.950;5.902;2023-05-20T11:37:06;102074.59;;;19.90;49.71
38466;BME280;24244;51.950;5.902;2023-05-20T11:39:36;102074.84;;;19.88;49.63
38466;BME280;24244;51.950;5.902;2023-05-20T11:42:03;102062.97;;;19.89;49.91
38466;BME280;24244;51.950;5.902;2023-05-20T11:44:31;102067.34;;;19.90;49.46
38466;BME280;24244;51.950;5.902;2023-05-20T11:46:59;102069.22;;;19.90;49.33
38466;BME280;24244;51.950;5.902;2023-05-20T11:49:27;102075.84;;;19.94;49.36
38466;BME280;24244;51.950;5.902;2023-05-20T11:51:55;102071.69;;;19.91;49.09
38466;BME280;24244;51.950;5.902;2023-05-20T11:54:23;102070.88;;;19.91;49.06
38466;BME280;24244;51.950;5.902;2023-05-20T11:56:53;102067.75;;;19.94;49.29
38466;BME280;24244;51.950;5.902;2023-05-20T11:59:23;102057.75;;;20.01;49.08
38466;BME280;24244;51.950;5.902;2023-05-20T12:01:50;102063.09;;;20.08;49.03
38466;BME280;24244;51.950;5.902;2023-05-20T12:04:17;102056.81;;;20.14;49.16
38466;BME280;24244;51.950;5.902;2023-05-20T12:06:44;102053.09;;;20.15;48.95
38466;BME280;24244;51.950;5.902;2023-05-20T12:09:12;102053.50;;;20.12;48.83
38466;BME280;24244;51.950;5.902;2023-05-20T12:11:39;102047.06;;;20.13;49.02
38466;BME280;24244;51.950;5.902;2023-05-20T12:14:09;102048.09;;;20.12;48.97
38466;BME280;24244;51.950;5.902;2023-05-20T12:16:36;102047.06;;;20.13;49.04
38466;BME280;24244;51.950;5.902;2023-05-20T12:19:04;102048.09;;;20.12;48.59
38466;BME280;24244;51.950;5.902;2023-05-20T12:21:31;102043.53;;;20.12;48.89
38466;BME280;24244;51.950;5.902;2023-05-20T12:23:58;102035.84;;;20.16;48.85
38466;BME280;24244;51.950;5.902;2023-05-20T12:26:26;102040.56;;;20.20;48.93
38466;BME280;24244;51.950;5.902;2023-05-20T12:28:53;102048.00;;;20.25;48.79
38466;BME280;24244;51.950;5.902;2023-05-20T12:31:22;102040.31;;;20.28;48.94
38466;BME280;24244;51.950;5.902;2023-05-20T12:33:49;102046.53;;;20.29;48.70
38466;BME280;24244;51.950;5.902;2023-05-20T12:36:18;102043.84;;;20.29;48.69
38466;BME280;24244;51.950;5.902;2023-05-20T12:38:46;102036.78;;;20.28;48.83
38466;BME280;24244;51.950;5.902;2023-05-20T12:41:12;102033.25;;;20.27;48.83
38466;BME280;24244;51.950;5.902;2023-05-20T12:43:39;102034.09;;;20.28;48.85
38466;BME280;24244;51.950;5.902;2023-05-20T12:46:08;102031.38;;;20.28;48.77
38466;BME280;24244;51.950;5.902;2023-05-20T12:48:36;102023.28;;;20.28;48.67
38466;BME280;24244;51.950;5.902;2023-05-20T12:51:06;102019.31;;;20.30;48.68
38466;BME280;24244;51.950;5.902;2023-05-20T12:53:33;102015.59;;;20.31;48.47
38466;BME280;24244;51.950;5.902;2023-05-20T12:56:00;102018.91;;;20.33;48.44
38466;BME280;24244;51.950;5.902;2023-05-20T12:58:26;102005.81;;;20.37;48.63